Time;durP1;ratioP1;P1;durP2;ratioP2;P2;SDS_P1;SDS_P2;PMS_P1;PMS_P2;Temp;Humidity;BMP_temperature;BMP_pressure;BME280_temperature;BME280_humidity;BME280_pressure;Samples;Min_cycle;Max_cycle;Signal;HPM_P1;HPM_P2
2021/04/01 00:01:55;;;;;;;;;;;19.80;57.30;;;;;;5076179;28;19908;-61
2021/04/01 00:04:20;;;;;;;;;;;19.60;57.10;;;;;;5075770;28;19913;-61
2021/04/01 00:06:46;;;;;;;;;;;19.60;57.00;;;;;;5076010;28;20347;-62
2021/04/01 00:09:11;;;;;;;;;;;19.60;56.90;;;;;;5075614;28;19909;-62
2021/04/01 00:11:37;;;;;;;;;;;20.70;57.70;;;;;;5075582;28;20046;-61
2021/04/01 00:14:03;;;;;;;;;;;19.60;56.90;;;;;;5076050;28;19925;-61
2021/04/01 00:16:29;;;;;;;;;;;19.70;56.80;;;;;;5075335;28;20374;-61
2021/04/01 00:18:54;;;;;;;;;;;19.70;57.10;;;;;;5075581;28;19913;-61
2021/04/01 00:21:20;;;;;;;;;;;19.50;57.20;;;;;;5075284;28;20083;-61
2021/04/01 00:23:45;;;;;;;;;;;20.40;57.40;;;;;;5075206;28;20363;-62
2021/04/01 00:26:11;;;;;;;;;;;19.70;57.10;;;;;;5057270;28;19912;-61
2021/04/01 00:28:36;;;;;;;;;;;19.60;57.10;;;;;;5075254;28;19912;-61
2021/04/01 00:31:02;;;;;;;;;;;19.70;57.20;;;;;;5075361;28;19916;-61
2021/04/01 00:33:27;;;;;;;;;;;19.40;57.10;;;;;;5075461;28;19991;-61
2021/04/01 00:35:53;;;;;;;;;;;20.70;57.80;;;;;;5057151;28;19908;-62
2021/04/01 00:38:18;;;;;;;;;;;19.30;57.20;;;;;;5075117;28;19940;-61
2021/04/01 00:40:44;;;;;;;;;;;20.10;57.50;;;;;;5075007;28;20386;-62
2021/04/01 00:43:09;;;;;;;;;;;19.70;57.40;;;;;;5057216;28;19913;-61
2021/04/01 00:45:35;;;;;;;;;;;19.40;57.40;;;;;;5074930;28;20037;-61
2021/04/01 00:48:00;;;;;;;;;;;19.30;57.40;;;;;;5074900;28;19974;-61
2021/04/01 00:50:27;;;;;;;;;;;19.50;56.80;;;;;;5074924;28;19964;-62
2021/04/01 00:52:53;;;;;;;;;;;19.50;57.40;;;;;;5074963;28;19988;-61
2021/04/01 00:55:18;;;;;;;;;;;19.40;57.40;;;;;;5073762;28;19944;-61
2021/04/01 00:57:45;;;;;;;;;;;19.50;57.60;;;;;;5074680;28;19912;-62
2021/04/01 01:00:13;;;;;;;;;;;19.60;57.30;;;;;;5074563;28;19913;-61
2021/04/01 01:02:38;;;;;;;;;;;19.20;56.80;;;;;;5074796;28;19909;-61
2021/04/01 01:05:05;;;;;;;;;;;19.90;57.70;;;;;;5056487;28;19947;-61
2021/04/01 01:07:31;;;;;;;;;;;19.20;56.50;;;;;;5074362;28;19913;-61
2021/04/01 01:09:56;;;;;;;;;;;19.50;57.40;;;;;;5074361;28;19919;-62
2021/04/01 01:12:22;;;;;;;;;;;19.50;57.50;;;;;;5074309;28;19935;-62
2021/04/01 01:14:47;;;;;;;;;;;19.30;57.50;;;;;;5074711;28;19986;-61
2021/04/01 01:17:16;;;;;;;;;;;19.40;57.30;;;;;;5074281;28;19908;-61
2021/04/01 01:19:46;;;;;;;;;;;19.20;54.90;;;;;;5074213;28;19998;-61
2021/04/01 01:22:11;;;;;;;;;;;19.30;57.30;;;;;;5074438;28;19912;-61
2021/04/01 01:24:37;;;;;;;;;;;19.50;57.60;;;;;;5074406;28;19909;-61
2021/04/01 01:27:03;;;;;;;;;;;19.30;57.40;;;;;;5074403;28;19966;-62
2021/04/01 01:29:29;;;;;;;;;;;19.20;57.10;;;;;;5073857;28;19908;-62
2021/04/01 01:31:55;;;;;;;;;;;19.50;57.70;;;;;;5073900;28;19920;-61
2021/04/01 01:34:20;;;;;;;;;;;19.30;57.40;;;;;;5074094;28;19974;-62
2021/04/01 01:36:46;;;;;;;;;;;19.30;57.40;;;;;;5073919;28;19908;-61
2021/04/01 01:39:12;;;;;;;;;;;19.30;57.40;;;;;;5055921;28;19947;-62
2021/04/01 01:41:37;;;;;;;;;;;19.20;57.50;;;;;;5074058;28;20019;-61
2021/04/01 01:44:03;;;;;;;;;;;19.40;57.40;;;;;;5073807;28;19974;-61
2021/04/01 01:46:28;;;;;;;;;;;19.20;57.40;;;;;;5073995;28;20303;-62
2021/04/01 01:48:57;;;;;;;;;;;19.30;57.10;;;;;;5073663;28;19919;-61
2021/04/01 01:51:23;;;;;;;;;;;17.40;54.10;;;;;;5073836;28;19917;-62
2021/04/01 01:53:49;;;;;;;;;;;19.30;57.50;;;;;;5073627;28;19909;-62
2021/04/01 01:56:21;;;;;;;;;;;19.20;57.60;;;;;;5073548;28;19954;-62
2021/04/01 01:58:48;;;;;;;;;;;19.10;55.00;;;;;;5073752;28;19923;-62
2021/04/01 02:01:14;;;;;;;;;;;19.20;57.50;;;;;;5073450;28;19916;-62
2021/04/01 02:03:40;;;;;;;;;;;19.30;57.60;;;;;;5073390;28;20378;-61
2021/04/01 02:06:06;;;;;;;;;;;19.10;57.60;;;;;;5073342;28;20006;-62
2021/04/01 02:08:31;;;;;;;;;;;19.30;57.50;;;;;;5073371;28;19919;-62
2021/04/01 02:10:57;;;;;;;;;;;19.20;57.60;;;;;;5073207;28;20010;-62
2021/04/01 02:13:23;;;;;;;;;;;19.10;57.60;;;;;;5073629;28;19911;-61
2021/04/01 02:15:50;;;;;;;;;;;19.20;57.90;;;;;;5055380;28;19923;-61
2021/04/01 02:18:21;;;;;;;;;;;19.20;57.70;;;;;;5073377;28;19978;-62
2021/04/01 02:20:48;;;;;;;;;;;19.10;57.70;;;;;;5073157;28;20553;-62
2021/04/01 02:23:17;;;;;;;;;;;19.50;58.00;;;;;;5073184;28;19916;-62
2021/04/01 02:25:44;;;;;;;;;;;19.10;55.10;;;;;;5073320;28;19931;-61
2021/04/01 02:28:10;;;;;;;;;;;19.20;57.70;;;;;;5073233;28;19952;-61
2021/04/01 02:30:37;;;;;;;;;;;19.10;57.80;;;;;;5072809;28;19913;-61
2021/04/01 02:33:03;;;;;;;;;;;19.30;57.60;;;;;;5073093;28;20279;-61
2021/04/01 02:35:28;;;;;;;;;;;19.10;57.50;;;;;;5073081;28;19955;-62
2021/04/01 02:37:54;;;;;;;;;;;19.10;57.80;;;;;;5072746;28;20656;-62
2021/04/01 02:40:19;;;;;;;;;;;19.20;57.70;;;;;;5072986;28;20003;-62
2021/04/01 02:42:45;;;;;;;;;;;20.00;57.60;;;;;;5072674;28;19912;-62
2021/04/01 02:45:11;;;;;;;;;;;19.40;58.00;;;;;;5054703;28;19912;-61
2021/04/01 02:47:37;;;;;;;;;;;19.10;57.60;;;;;;5072608;28;19912;-62
2021/04/01 02:50:06;;;;;;;;;;;19.10;57.10;;;;;;5072676;28;19970;-61
2021/04/01 02:52:32;;;;;;;;;;;19.00;55.00;;;;;;5072857;28;19908;-61
2021/04/01 02:54:58;;;;;;;;;;;19.20;57.70;;;;;;5072517;28;19970;-61
2021/04/01 02:57:24;;;;;;;;;;;20.40;58.40;;;;;;5072872;28;19988;-62
2021/04/01 02:59:49;;;;;;;;;;;19.10;57.50;;;;;;5072897;28;19919;-62
2021/04/01 03:02:15;;;;;;;;;;;19.10;57.60;;;;;;5072657;28;20323;-62
2021/04/01 03:04:41;;;;;;;;;;;19.00;57.40;;;;;;5072784;28;19963;-62
2021/04/01 03:07:07;;;;;;;;;;;19.00;57.50;;;;;;5054488;28;19970;-62
2021/04/01 03:09:33;;;;;;;;;;;19.50;57.90;;;;;;5072454;28;19909;-61
2021/04/01 03:11:58;;;;;;;;;;;19.20;57.90;;;;;;5072716;28;20007;-62
2021/04/01 03:14:24;;;;;;;;;;;19.50;57.80;;;;;;5072863;28;20378;-62
2021/04/01 03:16:50;;;;;;;;;;;19.30;57.70;;;;;;5072038;28;19913;-62
2021/04/01 03:19:15;;;;;;;;;;;19.30;57.90;;;;;;5072300;28;19912;-62
2021/04/01 03:21:41;;;;;;;;;;;19.30;57.60;;;;;;5072659;28;19959;-62
2021/04/01 03:24:07;;;;;;;;;;;19.20;57.60;;;;;;5072596;28;19908;-62
2021/04/01 03:26:33;;;;;;;;;;;19.00;57.10;;;;;;5072461;28;20510;-62
2021/04/01 03:28:58;;;;;;;;;;;19.10;57.90;;;;;;5072465;28;19909;-61
2021/04/01 03:31:24;;;;;;;;;;;19.10;57.70;;;;;;5072064;28;19916;-61
2021/04/01 03:33:49;;;;;;;;;;;19.30;57.90;;;;;;5072256;28;20367;-61
2021/04/01 03:36:15;;;;;;;;;;;19.10;57.90;;;;;;5072081;28;19916;-62
2021/04/01 03:38:43;;;;;;;;;;;19.80;58.10;;;;;;5072044;28;19912;-61
2021/04/01 03:41:09;;;;;;;;;;;19.00;57.70;;;;;;5072262;28;19908;-62
2021/04/01 03:43:34;;;;;;;;;;;18.90;57.60;;;;;;5072243;28;19924;-62
2021/04/01 03:46:00;;;;;;;;;;;19.20;57.80;;;;;;5072210;28;19916;-61
2021/04/01 03:48:25;;;;;;;;;;;19.20;57.90;;;;;;5072242;28;19916;-61
2021/04/01 03:50:51;;;;;;;;;;;19.00;57.40;;;;;;5072020;28;20290;-61
2021/04/01 03:53:16;;;;;;;;;;;19.70;58.00;;;;;;5071974;28;20359;-61
2021/04/01 03:55:42;;;;;;;;;;;19.00;57.80;;;;;;5072163;28;20275;-61
2021/04/01 04:11:50;;;;;;;;;;;19.30;55.60;;;;;;5078621;28;19922;-62
2021/04/01 04:14:25;;;;;;;;;;;19.70;56.50;;;;;;5072159;28;19920;-61
2021/04/01 04:16:51;;;;;;;;;;;18.90;55.30;;;;;;5071919;28;19913;-62
2021/04/01 04:19:16;;;;;;;;;;;19.10;57.90;;;;;;5071598;28;19924;-62
2021/04/01 04:21:42;;;;;;;;;;;18.80;57.80;;;;;;5071653;28;19912;-62
2021/04/01 04:24:10;;;;;;;;;;;18.90;57.80;;;;;;5071645;28;19916;-62
2021/04/01 04:26:35;;;;;;;;;;;19.00;57.40;;;;;;5071713;28;19913;-62
2021/04/01 04:29:01;;;;;;;;;;;19.00;57.90;;;;;;5071820;28;20381;-61
2021/04/01 04:31:26;;;;;;;;;;;18.80;57.80;;;;;;5075270;28;19916;-62
2021/04/01 04:33:52;;;;;;;;;;;18.90;57.80;;;;;;5075156;28;19915;-62
2021/04/01 04:36:17;;;;;;;;;;;18.90;57.90;;;;;;5075172;28;19915;-62
2021/04/01 04:38:43;;;;;;;;;;;19.10;58.00;;;;;;5057090;28;19908;-62
2021/04/01 04:41:09;;;;;;;;;;;19.10;57.90;;;;;;5075238;28;19970;-62
2021/04/01 04:43:35;;;;;;;;;;;18.80;57.80;;;;;;5075244;28;19915;-62
2021/04/01 04:46:01;;;;;;;;;;;18.80;57.90;;;;;;5074889;28;20409;-61
2021/04/01 04:48:27;;;;;;;;;;;19.10;57.60;;;;;;5056883;28;20011;-61
2021/04/01 04:50:52;;;;;;;;;;;18.90;57.70;;;;;;5074708;28;19923;-62
2021/04/01 04:53:18;;;;;;;;;;;18.80;57.90;;;;;;5074801;28;19932;-62
2021/04/01 05:01:11;;;;;;;;;;;18.80;57.90;;;;;;5074713;28;19952;-62
2021/04/01 05:09:04;;;;;;;;;;;18.80;55.50;;;;;;5074848;28;19915;-62
2021/04/01 05:11:33;;;;;;;;;;;18.70;57.80;;;;;;5074439;28;20469;-62
2021/04/01 05:14:02;;;;;;;;;;;18.90;55.60;;;;;;5074871;28;19913;-62
2021/04/01 05:16:28;;;;;;;;;;;18.80;55.10;;;;;;5056416;28;19912;-61
2021/04/01 05:18:56;;;;;;;;;;;18.90;58.20;;;;;;5074601;28;20374;-63
2021/04/01 05:21:25;;;;;;;;;;;18.90;58.00;;;;;;5074380;28;19912;-61
2021/04/01 05:23:51;;;;;;;;;;;18.80;58.40;;;;;;5074357;28;19948;-61
2021/04/01 05:28:54;;;;;;;;;;;18.90;56.60;;;;;;5081271;28;19915;-61
2021/04/01 05:31:22;;;;;;;;;;;18.80;58.50;;;;;;5074183;28;19916;-62
2021/04/01 05:33:49;;;;;;;;;;;18.90;58.20;;;;;;5074385;28;20309;-61
2021/04/01 05:36:21;;;;;;;;;;;18.70;58.40;;;;;;5074109;28;19915;-61
2021/04/01 05:38:47;;;;;;;;;;;18.80;58.10;;;;;;5073983;28;19939;-61
2021/04/01 05:41:13;;;;;;;;;;;18.80;58.50;;;;;;5073585;28;19908;-61
2021/04/01 05:43:44;;;;;;;;;;;18.70;57.90;;;;;;5074112;28;19962;-61
2021/04/01 05:49:01;;;;;;;;;;;18.70;58.30;;;;;;5073732;28;19931;-62
2021/04/01 05:51:49;;;;;;;;;;;18.70;58.70;;;;;;5073978;28;19916;-61
2021/04/01 06:05:52;;;;;;;;;;;18.70;56.10;;;;;;5069925;28;19916;-63
2021/04/01 06:08:21;;;;;;;;;;;18.70;59.20;;;;;;5072018;28;19908;-62
2021/04/01 06:10:48;;;;;;;;;;;18.90;59.10;;;;;;5073131;28;20346;-62
2021/04/01 06:13:15;;;;;;;;;;;19.00;59.20;;;;;;5073284;28;19908;-64
2021/04/01 06:15:45;;;;;;;;;;;19.00;59.30;;;;;;5073795;28;19928;-63
2021/04/01 06:18:11;;;;;;;;;;;18.70;56.10;;;;;;5073115;28;20122;-62
2021/04/01 06:20:40;;;;;;;;;;;18.70;59.10;;;;;;5073504;28;20371;-62
2021/04/01 06:23:05;;;;;;;;;;;18.80;59.50;;;;;;5073202;28;19913;-62
2021/04/01 06:25:35;;;;;;;;;;;18.90;59.00;;;;;;5071706;28;19918;-62
2021/04/01 06:28:02;;;;;;;;;;;18.90;58.90;;;;;;5073117;28;19919;-61
2021/04/01 06:30:31;;;;;;;;;;;18.70;59.30;;;;;;5073288;28;19913;-62
2021/04/01 06:33:04;;;;;;;;;;;18.90;60.00;;;;;;5073057;28;20027;-62
2021/04/01 06:35:35;;;;;;;;;;;18.70;56.80;;;;;;5073020;28;19958;-62
2021/04/01 06:40:47;;;;;;;;;;;18.60;57.50;;;;;;5072939;28;20287;-62
2021/04/01 06:43:22;;;;;;;;;;;18.70;57.70;;;;;;5072803;28;19912;-62
2021/04/01 06:45:54;;;;;;;;;;;18.70;57.80;;;;;;5054757;28;19909;-62
2021/04/01 06:48:25;;;;;;;;;;;18.60;57.80;;;;;;5072978;28;19909;-62
2021/04/01 06:50:58;;;;;;;;;;;18.70;57.50;;;;;;5073138;28;20515;-63
2021/04/01 06:53:37;;;;;;;;;;;18.60;58.10;;;;;;5054139;28;19908;-62
2021/04/01 06:58:47;;;;;;;;;;;18.60;59.20;;;;;;5072738;28;20274;-60
2021/04/01 07:01:28;;;;;;;;;;;19.00;60.30;;;;;;5072751;28;19944;-59
2021/04/01 07:03:59;;;;;;;;;;;18.70;60.00;;;;;;5072535;28;19915;-60
2021/04/01 07:06:48;;;;;;;;;;;18.70;57.20;;;;;;5071940;28;19965;-60
2021/04/01 07:12:19;;;;;;;;;;;18.70;56.80;;;;;;5079269;28;19924;-60
2021/04/01 07:15:10;;;;;;;;;;;18.70;56.50;;;;;;5071481;28;20195;-61
2021/04/01 07:17:41;;;;;;;;;;;18.80;56.50;;;;;;5072337;28;19912;-60
2021/04/01 07:23:13;;;;;;;;;;;18.80;58.60;;;;;;5052033;28;19915;-61
2021/04/01 07:48:23;;;;;;;;;;;19.00;58.50;;;;;;5058037;28;20460;-60
2021/04/01 07:50:49;;;;;;;;;;;19.40;59.40;;;;;;5052062;28;19916;-60
2021/04/01 07:53:21;;;;;;;;;;;19.00;59.00;;;;;;5051614;28;19909;-60
2021/04/01 08:01:08;;;;;;;;;;;19.20;59.00;;;;;;5052012;28;19909;-61
2021/04/01 08:06:27;;;;;;;;;;;19.10;57.40;;;;;;5062618;28;20004;-60
2021/04/01 08:08:58;;;;;;;;;;;19.10;55.80;;;;;;5055702;28;20331;-60
2021/04/01 08:11:31;;;;;;;;;;;19.90;59.10;;;;;;5055696;28;19917;-60
2021/04/01 08:14:08;;;;;;;;;;;19.20;55.70;;;;;;5038226;28;20351;-59
2021/04/01 08:16:38;;;;;;;;;;;19.20;55.70;;;;;;5055383;28;20350;-60
2021/04/01 08:19:04;;;;;;;;;;;19.30;58.60;;;;;;5041584;28;20370;-60
2021/04/01 08:21:30;;;;;;;;;;;19.30;58.40;;;;;;5053766;28;20023;-60
2021/04/01 08:24:08;;;;;;;;;;;19.30;58.50;;;;;;5054306;28;20366;-61
2021/04/01 08:29:26;;;;;;;;;;;19.50;58.30;;;;;;5053170;28;19909;-60
2021/04/01 08:34:40;;;;;;;;;;;19.40;58.20;;;;;;5060077;28;19936;-60
2021/04/01 08:37:06;;;;;;;;;;;19.40;58.20;;;;;;5053070;28;20486;-60
2021/04/01 08:39:33;;;;;;;;;;;19.40;58.20;;;;;;5054272;28;19908;-60
2021/04/01 08:42:01;;;;;;;;;;;19.50;58.40;;;;;;5054831;28;19909;-60
2021/04/01 08:44:47;;;;;;;;;;;19.40;55.20;;;;;;5054826;28;20370;-60
2021/04/01 08:47:19;;;;;;;;;;;19.50;55.20;;;;;;5054704;28;20368;-60
2021/04/01 08:49:52;;;;;;;;;;;19.50;57.40;;;;;;5054592;28;20024;-60
2021/04/01 08:52:29;;;;;;;;;;;19.60;55.20;;;;;;5054563;28;19963;-60
2021/04/01 08:55:00;;;;;;;;;;;19.60;55.00;;;;;;5055137;28;19913;-60
2021/04/01 08:57:31;;;;;;;;;;;19.60;57.60;;;;;;5054571;28;20299;-60
2021/04/01 09:00:10;;;;;;;;;;;19.70;54.90;;;;;;5054413;28;19951;-60
2021/04/01 09:02:35;;;;;;;;;;;19.60;54.80;;;;;;5054358;28;20459;-61
2021/04/01 09:05:03;;;;;;;;;;;19.80;57.50;;;;;;5054359;28;20019;-63
2021/04/01 09:07:30;;;;;;;;;;;19.80;57.40;;;;;;5054370;28;19909;-61
2021/04/01 09:10:29;;;;;;;;;;;19.90;57.30;;;;;;5054061;28;19940;-61
2021/04/01 09:13:09;;;;;;;;;;;19.90;54.60;;;;;;5054289;28;19913;-64
2021/04/01 09:18:21;;;;;;;;;;;20.10;54.40;;;;;;5061256;28;19971;-62
2021/04/01 09:20:47;;;;;;;;;;;20.20;53.80;;;;;;5054146;28;19908;-61
2021/04/01 09:23:13;;;;;;;;;;;20.60;56.80;;;;;;5054136;28;19909;-61
2021/04/01 09:25:41;;;;;;;;;;;20.70;56.40;;;;;;5053954;28;20023;-61
2021/04/01 09:28:07;;;;;;;;;;;21.70;57.10;;;;;;5054246;28;19909;-61
2021/04/01 09:30:33;;;;;;;;;;;20.90;56.10;;;;;;5053979;28;19921;-61
2021/04/01 09:33:02;;;;;;;;;;;20.50;55.90;;;;;;5053893;28;20375;-61
2021/04/01 09:35:29;;;;;;;;;;;20.90;56.10;;;;;;5053852;28;19947;-61
2021/04/01 09:37:58;;;;;;;;;;;20.70;55.40;;;;;;5053857;28;19964;-61
2021/04/01 09:40:27;;;;;;;;;;;21.30;55.80;;;;;;5053888;28;19955;-61
2021/04/01 09:42:53;;;;;;;;;;;20.80;52.60;;;;;;5035939;28;19962;-61
2021/04/01 09:45:29;;;;;;;;;;;21.10;55.20;;;;;;5053746;28;19909;-60
2021/04/01 09:48:00;;;;;;;;;;;21.10;54.40;;;;;;5053490;28;19909;-61
2021/04/01 09:50:28;;;;;;;;;;;21.00;52.20;;;;;;5053769;28;19928;-63
2021/04/01 09:53:02;;;;;;;;;;;21.40;55.20;;;;;;5053599;28;19962;-63
2021/04/01 09:55:35;;;;;;;;;;;21.20;52.30;;;;;;5053606;28;19909;-63
2021/04/01 09:58:02;;;;;;;;;;;21.20;51.80;;;;;;5053536;28;19908;-61
2021/04/01 10:03:11;;;;;;;;;;;21.30;51.30;;;;;;5060396;28;19920;-63
2021/04/01 10:05:45;;;;;;;;;;;21.40;51.40;;;;;;5053269;28;19933;-60
2021/04/01 10:08:11;;;;;;;;;;;21.30;51.60;;;;;;5059952;28;20008;-60
2021/04/01 10:10:38;;;;;;;;;;;22.10;53.80;;;;;;5053368;28;20083;-60
2021/04/01 10:13:17;;;;;;;;;;;21.60;53.80;;;;;;5053161;28;19955;-60
2021/04/01 10:15:42;;;;;;;;;;;21.50;51.00;;;;;;5053292;28;20395;-60
2021/04/01 10:18:09;;;;;;;;;;;22.50;53.90;;;;;;5052954;28;19909;-60
2021/04/01 10:20:35;;;;;;;;;;;21.70;53.30;;;;;;5051653;28;19915;-60
2021/04/01 10:23:07;;;;;;;;;;;22.20;53.50;;;;;;5053043;28;19960;-60
2021/04/01 10:25:36;;;;;;;;;;;21.80;50.70;;;;;;5053184;28;20217;-60
2021/04/01 10:28:08;;;;;;;;;;;21.90;53.20;;;;;;5051710;28;19913;-61
2021/04/01 10:30:34;;;;;;;;;;;22.10;53.00;;;;;;5059519;28;19917;-60
2021/04/01 10:33:03;;;;;;;;;;;23.00;53.50;;;;;;5052733;28;20316;-60
2021/04/01 10:35:28;;;;;;;;;;;21.80;50.50;;;;;;5052675;28;19909;-60
2021/04/01 10:37:57;;;;;;;;;;;22.00;53.10;;;;;;5052948;28;19916;-61
2021/04/01 10:40:23;;;;;;;;;;;22.20;53.00;;;;;;5052774;28;19909;-60
2021/04/01 10:42:49;;;;;;;;;;;22.50;53.20;;;;;;5052490;28;19913;-62
2021/04/01 10:45:17;;;;;;;;;;;21.90;52.80;;;;;;5052537;28;20335;-60
2021/04/01 10:48:09;;;;;;;;;;;21.80;52.20;;;;;;5052903;28;19963;-60
2021/04/01 10:50:35;;;;;;;;;;;21.70;50.20;;;;;;5032326;28;20007;-61
2021/04/01 10:53:01;;;;;;;;;;;22.90;53.50;;;;;;5052316;28;19974;-61
2021/04/01 10:55:30;;;;;;;;;;;21.80;52.80;;;;;;5051049;28;19915;-60
2021/04/01 10:58:06;;;;;;;;;;;21.90;50.50;;;;;;5052316;28;19966;-61
2021/04/01 11:00:31;;;;;;;;;;;21.90;50.70;;;;;;5052358;28;19917;-61
2021/04/01 11:03:01;;;;;;;;;;;23.10;53.70;;;;;;5052392;28;20323;-61
2021/04/01 11:05:28;;;;;;;;;;;22.40;53.20;;;;;;5051028;28;19913;-62
2021/04/01 11:08:07;;;;;;;;;;;22.20;53.20;;;;;;5052225;28;19920;-61
2021/04/01 11:10:34;;;;;;;;;;;22.00;50.40;;;;;;5052096;28;19917;-60
2021/04/01 11:13:00;;;;;;;;;;;23.40;54.50;;;;;;5052141;28;19931;-62
2021/04/01 11:15:27;;;;;;;;;;;22.60;54.70;;;;;;5052346;28;20391;-61
2021/04/01 11:17:58;;;;;;;;;;;22.50;53.90;;;;;;5052142;28;20310;-60
2021/04/01 11:20:26;;;;;;;;;;;22.60;53.90;;;;;;5052406;28;19991;-60
2021/04/01 11:22:59;;;;;;;;;;;22.30;53.40;;;;;;5052032;28;19920;-60
2021/04/01 11:25:24;;;;;;;;;;;22.30;50.30;;;;;;5052082;28;20481;-61
2021/04/01 11:27:51;;;;;;;;;;;22.90;55.50;;;;;;5034152;28;20003;-61
2021/04/01 11:30:18;;;;;;;;;;;22.40;55.30;;;;;;5051981;28;19916;-61
2021/04/01 11:32:49;;;;;;;;;;;22.50;53.80;;;;;;5034050;28;19909;-62
2021/04/01 11:35:15;;;;;;;;;;;22.70;54.50;;;;;;5058923;28;19908;-61
2021/04/01 11:37:44;;;;;;;;;;;23.00;55.70;;;;;;5050697;28;19923;-61
2021/04/01 11:40:10;;;;;;;;;;;23.10;55.60;;;;;;5055841;28;19909;-61
2021/04/01 11:42:36;;;;;;;;;;;22.70;53.80;;;;;;5056277;28;20341;-61
2021/04/01 11:45:06;;;;;;;;;;;23.20;55.30;;;;;;5055949;28;19924;-60
2021/04/01 11:47:32;;;;;;;;;;;;;;;;;;5056117;28;20279;-60
2021/04/01 11:49:58;;;;;;;;;;;22.70;50.20;;;;;;5054634;28;20007;-60
2021/04/01 11:52:23;;;;;;;;;;;23.20;56.40;;;;;;5054454;28;19920;-60
2021/04/01 11:54:52;;;;;;;;;;;22.80;56.30;;;;;;5055508;28;19995;-61
2021/04/01 11:57:18;;;;;;;;;;;22.60;56.10;;;;;;5037729;28;20279;-61
2021/04/01 11:59:53;;;;;;;;;;;23.10;57.00;;;;;;5055661;28;20302;-60
2021/04/01 12:02:21;;;;;;;;;;;22.80;52.00;;;;;;5052507;28;19909;-61
2021/04/01 12:04:49;;;;;;;;;;;24.50;57.40;;;;;;5053762;28;19934;-61
2021/04/01 12:07:14;;;;;;;;;;;23.30;57.60;;;;;;5036210;28;19916;-61
2021/04/01 12:09:42;;;;;;;;;;;23.50;57.60;;;;;;5053687;28;19909;-61
2021/04/01 12:12:08;;;;;;;;;;;23.50;57.40;;;;;;5053544;28;19952;-61
2021/04/01 12:14:34;;;;;;;;;;;22.90;56.20;;;;;;5054180;28;19944;-60
2021/04/01 12:17:01;;;;;;;;;;;24.40;57.30;;;;;;5055484;28;20331;-61
2021/04/01 12:19:26;;;;;;;;;;;22.90;57.00;;;;;;5055781;28;19935;-60
2021/04/01 12:21:52;;;;;;;;;;;22.90;57.80;;;;;;5055491;28;20363;-61
2021/04/01 12:24:17;;;;;;;;;;;23.50;58.20;;;;;;5037894;28;20367;-61
2021/04/01 12:26:43;;;;;;;;;;;23.80;58.10;;;;;;5055520;28;19915;-61
2021/04/01 12:29:09;;;;;;;;;;;22.80;58.00;;;;;;5055665;28;19909;-61
2021/04/01 12:31:38;;;;;;;;;;;24.00;59.10;;;;;;5055593;28;19917;-62
2021/04/01 12:34:05;;;;;;;;;;;22.80;52.60;;;;;;5055399;28;19956;-60
2021/04/01 12:36:31;;;;;;;;;;;24.30;58.30;;;;;;5055283;28;20019;-61
2021/04/01 12:38:56;;;;;;;;;;;22.50;58.10;;;;;;5055197;28;20339;-60
2021/04/01 12:41:25;;;;;;;;;;;23.40;58.00;;;;;;5037011;28;20064;-60
2021/04/01 12:43:51;;;;;;;;;;;22.90;52.80;;;;;;5055048;28;20389;-60
2021/04/01 12:46:16;;;;;;;;;;;23.70;58.30;;;;;;5054869;28;19917;-60
2021/04/01 12:48:43;;;;;;;;;;;22.80;57.10;;;;;;5054905;28;19916;-60
2021/04/01 12:51:11;;;;;;;;;;;23.80;58.20;;;;;;5054042;28;19916;-61
2021/04/01 12:53:36;;;;;;;;;;;23.40;58.80;;;;;;5055192;28;19920;-60
2021/04/01 12:56:11;;;;;;;;;;;23.50;58.40;;;;;;5054791;28;19909;-59
2021/04/01 12:58:42;;;;;;;;;;;23.50;58.60;;;;;;5061425;28;19913;-60
2021/04/01 13:01:12;;;;;;;;;;;22.90;58.50;;;;;;5054631;28;19909;-60
2021/04/01 13:03:37;;;;;;;;;;;22.40;53.10;;;;;;5054863;28;19909;-60
2021/04/01 13:06:07;;;;;;;;;;;22.50;58.90;;;;;;5054544;28;19916;-60
2021/04/01 13:08:54;;;;;;;;;;;22.30;58.50;;;;;;5054698;28;19909;-60
2021/04/01 13:11:21;;;;;;;;;;;22.40;54.50;;;;;;5054707;28;19924;-60
2021/04/01 13:13:46;;;;;;;;;;;22.70;59.40;;;;;;5054494;28;19920;-60
2021/04/01 13:16:12;;;;;;;;;;;22.30;59.00;;;;;;5054610;28;19921;-61
2021/04/01 13:18:38;;;;;;;;;;;23.20;59.80;;;;;;5054604;28;19909;-57
2021/04/01 13:21:04;;;;;;;;;;;22.70;59.40;;;;;;5054206;28;19915;-60
2021/04/01 13:23:32;;;;;;;;;;;22.00;58.70;;;;;;5054449;28;20014;-60
2021/04/01 13:25:58;;;;;;;;;;;23.00;60.20;;;;;;5053626;28;19941;-60
2021/04/01 13:28:24;;;;;;;;;;;22.00;59.10;;;;;;5052708;28;19909;-60
2021/04/01 13:30:57;;;;;;;;;;;23.20;60.10;;;;;;5053433;28;19956;-60
2021/04/01 13:33:45;;;;;;;;;;;23.10;60.10;;;;;;5053926;28;20371;-60
2021/04/01 13:36:19;;;;;;;;;;;22.00;59.10;;;;;;5053900;28;20422;-60
2021/04/01 13:38:44;;;;;;;;;;;22.00;63.00;;;;;;5054185;28;19996;-60
2021/04/01 13:41:13;;;;;;;;;;;22.40;63.30;;;;;;5053884;28;20379;-60
2021/04/01 13:43:39;;;;;;;;;;;22.20;62.80;;;;;;5054096;28;19909;-60
2021/04/01 13:46:05;;;;;;;;;;;23.00;63.70;;;;;;5053706;28;20031;-60
2021/04/01 13:48:32;;;;;;;;;;;21.60;59.50;;;;;;5053595;28;19909;-60
2021/04/01 13:51:09;;;;;;;;;;;23.00;61.20;;;;;;5053933;28;19917;-60
2021/04/01 13:56:24;;;;;;;;;;;22.20;57.20;;;;;;5060741;28;19963;-60
2021/04/01 13:59:14;;;;;;;;;;;21.30;65.00;;;;;;5053372;28;19908;-61
2021/04/01 14:09:48;;;;;;;;;;;21.40;68.60;;;;;;5053636;28;20383;-61
2021/04/01 14:12:17;;;;;;;;;;;21.30;69.00;;;;;;5053156;28;19923;-60
2021/04/01 14:14:43;;;;;;;;;;;21.30;68.90;;;;;;5054079;28;19916;-60
2021/04/01 14:17:08;;;;;;;;;;;21.30;70.40;;;;;;5053314;28;19921;-61
2021/04/01 14:19:36;;;;;;;;;;;21.30;71.70;;;;;;5053138;28;19909;-61
2021/04/01 14:22:02;;;;;;;;;;;;;;;;;;5053454;28;19917;-60
2021/04/01 14:24:32;;;;;;;;;;;21.30;76.60;;;;;;5052860;28;19923;-61
2021/04/01 14:29:24;;;;;;;;;;;;;;;;;;5053467;28;19909;-61
2021/04/01 14:31:50;;;;;;;;;;;21.20;78.90;;;;;;5053041;28;19962;-60
2021/04/01 14:34:16;;;;;;;;;;;;;;;;;;5052518;28;19909;-60
2021/04/01 14:36:42;;;;;;;;;;;;;;;;;;5052223;28;19916;-60
2021/04/01 14:39:08;;;;;;;;;;;;;;;;;;5052506;28;19983;-61
2021/04/01 14:41:38;;;;;;;;;;;21.20;76.20;;;;;;5052730;28;20012;-61
2021/04/01 14:46:33;;;;;;;;;;;21.60;79.50;;;;;;5059426;28;19999;-60
2021/04/01 14:49:03;;;;;;;;;;;21.10;67.70;;;;;;5051268;28;20007;-61
2021/04/01 14:51:28;;;;;;;;;;;20.80;68.00;;;;;;5052663;28;19916;-61
2021/04/01 14:53:57;;;;;;;;;;;21.00;68.50;;;;;;5052519;28;19915;-60
2021/04/01 14:56:24;;;;;;;;;;;21.00;68.50;;;;;;5052105;28;20391;-60
2021/04/01 14:58:50;;;;;;;;;;;20.70;68.80;;;;;;5052538;28;19956;-62
2021/04/01 15:01:19;;;;;;;;;;;20.90;68.70;;;;;;5052190;28;19912;-61
2021/04/01 15:03:45;;;;;;;;;;;21.10;68.70;;;;;;5052264;28;20000;-61
2021/04/01 15:06:14;;;;;;;;;;;20.90;65.40;;;;;;5052175;28;20509;-61
2021/04/01 15:08:40;;;;;;;;;;;20.90;68.60;;;;;;5052122;28;19909;-59
2021/04/01 15:11:06;;;;;;;;;;;20.80;69.70;;;;;;5052104;28;20003;-59
2021/04/01 15:13:31;;;;;;;;;;;20.80;69.70;;;;;;5051409;28;19967;-59
2021/04/01 15:15:57;;;;;;;;;;;20.70;70.40;;;;;;5052549;28;20020;-59
2021/04/01 15:18:26;;;;;;;;;;;20.80;72.10;;;;;;5052315;28;19925;-60
2021/04/01 15:20:52;;;;;;;;;;;20.90;72.20;;;;;;5052144;28;20003;-59
2021/04/01 15:23:17;;;;;;;;;;;20.80;72.60;;;;;;5052248;28;20366;-59
2021/04/01 15:25:43;;;;;;;;;;;20.80;73.80;;;;;;5051958;28;20259;-59
2021/04/01 15:28:09;;;;;;;;;;;20.70;72.90;;;;;;5051887;28;19908;-59
2021/04/01 15:30:34;;;;;;;;;;;20.50;73.30;;;;;;5052029;28;20027;-60
2021/04/01 15:33:00;;;;;;;;;;;21.00;75.40;;;;;;5052180;28;19939;-60
2021/04/01 15:35:26;;;;;;;;;;;21.00;73.90;;;;;;5051821;28;19915;-59
2021/04/01 15:37:51;;;;;;;;;;;20.70;74.10;;;;;;5051744;28;19967;-60
2021/04/01 15:40:17;;;;;;;;;;;;;;;;;;5051785;28;19952;-61
2021/04/01 15:42:42;;;;;;;;;;;20.70;74.10;;;;;;5050495;28;19915;-60
2021/04/01 15:45:10;;;;;;;;;;;20.80;74.10;;;;;;5051851;28;19909;-61
2021/04/01 15:47:36;;;;;;;;;;;20.80;70.20;;;;;;5051949;28;19909;-60
2021/04/01 15:50:01;;;;;;;;;;;20.70;70.90;;;;;;5051702;28;19924;-61
2021/04/01 15:52:27;;;;;;;;;;;20.80;72.90;;;;;;5051607;28;19921;-60
2021/04/01 15:54:52;;;;;;;;;;;20.70;75.50;;;;;;5051973;28;19915;-61
2021/04/01 15:57:18;;;;;;;;;;;;;;;;;;5051731;28;20283;-60
2021/04/01 15:59:44;;;;;;;;;;;20.70;77.20;;;;;;5051671;28;19913;-61
2021/04/01 16:02:09;;;;;;;;;;;20.70;72.40;;;;;;5051937;28;20351;-60
2021/04/01 16:04:35;;;;;;;;;;;;;;;;;;5051526;28;19913;-60
2021/04/01 16:07:01;;;;;;;;;;;20.40;74.60;;;;;;5051689;28;19912;-60
2021/04/01 16:09:27;;;;;;;;;;;;;;;;;;5051614;28;19916;-60
2021/04/01 16:11:53;;;;;;;;;;;;;;;;;;5050254;28;19916;-61
2021/04/01 16:14:19;;;;;;;;;;;20.80;74.50;;;;;;5051411;28;19956;-60
2021/04/01 16:16:45;;;;;;;;;;;20.60;74.40;;;;;;5052314;28;19928;-61